LiveATC.Net - Listen to live air traffic control over the Internet!


ICAO: KDVO  IATA: DVO   Airport: Gnoss Field Airport
City: Novato   State/Province: California
Country: United States   Continent: North America
KDVO METAR Weather: KDVO 210255Z AUTO 25009G16KT 10SM CLR 14/07 A2994 RMK AO2
KDVO Flight Activity (FlightAware)
KDVO Webcam:  (Airport Webcams) 
KDVO Airport Info   (iFlightPlanner)
KDVO VFR Sectional Chart   (iFlightPlanner) 
KDVO IFR Low Chart   (iFlightPlanner) 

KDVO CTAF
Feed Status: DOWN
Last heard on: 2019-04-20 21:43:03 (0 days 5 hours 27 minutes ago)
KDVO CTAF Audio Archives
FacilityFrequency
Novato CTAF123.075

NOTICE

Unauthorized use prohibited. See LiveATC.net Terms of Service


Find LiveATC Audio Streams


Airport/ARTCC Code

Frequency Search
(e.g., 124.400, 128.75)
Site-wide search
 


Browse LiveATC Feeds
Top 50 LiveATC Feeds
LiveATC Feed Map
Bad Weather Areas

LiveATC FAQ
Offer LiveATC feed
Contact LiveATC.net
Press Inquiries

LiveATC on iPhone
LiveATC on Android

Windows Phone
Windows 8/10

LiveATC Mobile
(Mobile browser)

ATC Audio Archives
Interesting Recordings

LiveATC Forums


Home Page
About LiveATC.net
Make a Donation
Terms of Use
Privacy Policy

Canadian Air Freqs

AIRMETs/SIGMETs

FAA Airport Status
Nat'l Airspace Status
Arrival Demand Charts


Server Software By:
Icecast.org
Liquidsoap